METAR Data
IDs: Format: Raw Decoded Include TAF

Data at: 1600 UTC 03 Dec 2021

EBBL 031525Z AUTO 21015G26KT 7000 +DZ OVC014/// 04/02 Q1005 GRN